Polar, Wisconsin
Current Conditions -  °F | °C
As of 1:15 AM on Saturday 29 Nov 2014 (Local Time) from KAIG Reporting Station
Haze Haze  
Wind Chill: 10°   Ceiling: 400
Heat Index: 18°   Visibility: 4mi
Dew Point: 17°   Wind: 6mph
Humidity: 96%   Direction: 150°SSE
Pressure: 29.74"   Gusts: NA
Location:  45.2253°N, 88.9533°W
Report Text: KAIG 290715Z AUTO 15005KT 4SM BR OVC004 M08/M08 A2974 RMK AO2 T10771082
Loading
Personal Weather Stations






























Interactive Weather Map New forecast layout! Learn more

10-Day Weather Forecast

Advertisements
Track Severe Weather on mobile